createdAt,value
2022-12-06T00:00:38.318Z,1014.07
2022-12-06T00:01:38.267Z,1014.13
2022-12-06T00:02:38.304Z,1014.06
2022-12-06T00:03:38.249Z,1014.09
2022-12-06T00:04:38.191Z,1014.13
2022-12-06T00:05:41.849Z,1014.08
2022-12-06T00:06:39.194Z,1014.10
2022-12-06T00:07:38.237Z,1014.06
2022-12-06T00:08:38.167Z,1014.07
2022-12-06T00:09:38.115Z,1014.04
2022-12-06T00:10:38.180Z,1014.07
2022-12-06T00:11:38.084Z,1014.05
2022-12-06T00:12:38.091Z,1014.06
2022-12-06T00:13:38.073Z,1014.05
2022-12-06T00:14:38.156Z,1014.11
2022-12-06T00:15:38.043Z,1014.04
2022-12-06T00:16:39.212Z,1014.05
2022-12-06T00:17:42.899Z,1014.10
2022-12-06T00:18:41.107Z,1014.05
2022-12-06T00:19:38.012Z,1014.09
2022-12-06T00:20:59.037Z,1014.05
2022-12-06T00:21:37.978Z,1014.10
2022-12-06T00:22:38.057Z,1014.04
2022-12-06T00:23:37.971Z,1014.00
2022-12-06T00:24:38.020Z,1014.09
2022-12-06T00:25:37.937Z,1014.02
2022-12-06T00:26:37.984Z,1014.03
2022-12-06T00:27:37.915Z,1013.99
2022-12-06T00:28:37.997Z,1014.04
2022-12-06T00:29:37.910Z,1014.01
2022-12-06T00:30:37.929Z,1014.11
2022-12-06T00:31:37.955Z,1014.02
2022-12-06T00:32:37.926Z,1013.97
2022-12-06T00:33:37.851Z,1014.02
2022-12-06T00:34:37.884Z,1014.01
2022-12-06T00:35:37.832Z,1014.02
2022-12-06T00:36:37.844Z,1013.97
2022-12-06T00:37:37.812Z,1013.97
2022-12-06T00:38:37.861Z,1013.93
2022-12-06T00:39:37.818Z,1013.96
2022-12-06T00:40:37.874Z,1013.96
2022-12-06T00:41:37.763Z,1013.94
2022-12-06T00:42:37.788Z,1013.95
2022-12-06T00:43:37.743Z,1013.93
2022-12-06T00:44:37.844Z,1013.90
2022-12-06T00:45:37.824Z,1013.92
2022-12-06T00:46:37.813Z,1013.90
2022-12-06T00:47:37.702Z,1013.95
2022-12-06T00:48:37.726Z,1013.96
2022-12-06T00:49:37.712Z,1013.90
2022-12-06T00:50:37.741Z,1013.91
2022-12-06T00:51:37.670Z,1013.93
2022-12-06T00:52:37.752Z,1013.93
2022-12-06T00:53:37.636Z,1013.92
2022-12-06T00:54:37.726Z,1013.92
2022-12-06T00:55:37.631Z,1013.96
2022-12-06T00:56:37.685Z,1013.92
2022-12-06T00:57:37.595Z,1013.90
2022-12-06T00:58:37.695Z,1013.89
2022-12-06T00:59:37.592Z,1013.94
2022-12-06T01:00:37.609Z,1013.91
2022-12-06T01:01:37.583Z,1013.93
2022-12-06T01:02:37.626Z,1013.95
2022-12-06T01:03:37.597Z,1013.90
2022-12-06T01:04:37.596Z,1013.86
2022-12-06T01:05:37.511Z,1013.88
2022-12-06T01:06:58.539Z,1013.87
2022-12-06T01:07:37.544Z,1013.86
2022-12-06T01:08:37.558Z,1013.95
2022-12-06T01:09:37.480Z,1013.90
2022-12-06T01:10:38.493Z,1013.89
2022-12-06T01:11:37.468Z,1013.85
2022-12-06T01:12:37.481Z,1013.85
2022-12-06T01:13:37.430Z,1013.88
2022-12-06T01:14:37.447Z,1013.84
2022-12-06T01:15:37.402Z,1013.88
2022-12-06T01:16:37.466Z,1013.84
2022-12-06T01:17:37.392Z,1013.92
2022-12-06T01:18:37.420Z,1013.88
2022-12-06T01:19:37.378Z,1013.86
2022-12-06T01:20:37.437Z,1013.91
2022-12-06T01:21:37.338Z,1013.86
2022-12-06T01:22:38.178Z,1013.89
2022-12-06T01:23:37.320Z,1013.89
2022-12-06T01:24:37.410Z,1013.91
2022-12-06T01:25:37.296Z,1013.90
2022-12-06T01:26:37.375Z,1013.91
2022-12-06T01:27:37.292Z,1013.88
2022-12-06T01:28:37.285Z,1013.88
2022-12-06T01:29:37.265Z,1013.85
2022-12-06T01:30:37.369Z,1013.88
2022-12-06T01:31:38.991Z,1013.88
2022-12-06T01:32:37.311Z,1013.87
2022-12-06T01:33:37.211Z,1013.83
2022-12-06T01:34:37.272Z,1013.81
2022-12-06T01:35:37.192Z,1013.84
2022-12-06T01:36:37.239Z,1013.87
2022-12-06T01:37:37.165Z,1013.85
2022-12-06T01:38:37.250Z,1013.82
2022-12-06T01:39:37.147Z,1013.81
2022-12-06T01:40:37.227Z,1013.90
2022-12-06T01:41:37.123Z,1013.87
2022-12-06T01:42:37.178Z,1013.88
2022-12-06T01:43:37.121Z,1013.86
2022-12-06T01:44:37.189Z,1013.84
2022-12-06T01:45:37.101Z,1013.83
2022-12-06T01:46:38.179Z,1013.78
2022-12-06T01:47:37.063Z,1013.80
2022-12-06T01:48:38.141Z,1013.74
2022-12-06T01:49:37.042Z,1013.78
2022-12-06T01:50:37.072Z,1013.79
2022-12-06T01:51:37.019Z,1013.76
2022-12-06T01:52:38.071Z,1013.78
2022-12-06T01:53:37.002Z,1013.75
2022-12-06T01:54:39.003Z,1013.75
2022-12-06T01:55:36.990Z,1013.75
2022-12-06T01:56:37.990Z,1013.74
2022-12-06T01:57:36.955Z,1013.77
2022-12-06T01:58:36.979Z,1013.74
2022-12-06T01:59:36.947Z,1013.69
2022-12-06T02:00:37.048Z,1013.73
2022-12-06T02:01:36.948Z,1013.69
2022-12-06T02:02:37.095Z,1013.71
2022-12-06T02:03:36.890Z,1013.74
2022-12-06T02:04:36.919Z,1013.73
2022-12-06T02:05:40.686Z,1013.70
2022-12-06T02:06:36.932Z,1013.71
2022-12-06T02:07:36.917Z,1013.70
2022-12-06T02:08:36.950Z,1013.73
2022-12-06T02:09:36.827Z,1013.69
2022-12-06T02:10:36.905Z,1013.67
2022-12-06T02:11:36.806Z,1013.72
2022-12-06T02:12:36.873Z,1013.68
2022-12-06T02:13:36.770Z,1013.65
2022-12-06T02:14:36.786Z,1013.67
2022-12-06T02:15:36.792Z,1013.62
2022-12-06T02:16:36.888Z,1013.64
2022-12-06T02:17:36.740Z,1013.61
2022-12-06T02:18:36.813Z,1013.57
2022-12-06T02:19:36.718Z,1013.58
2022-12-06T02:20:36.774Z,1013.54
2022-12-06T02:21:36.696Z,1013.57
2022-12-06T02:22:36.752Z,1013.53
2022-12-06T02:23:36.681Z,1013.57
2022-12-06T02:24:36.752Z,1013.54
2022-12-06T02:25:40.733Z,1013.54
2022-12-06T02:26:37.687Z,1013.53
2022-12-06T02:27:36.636Z,1013.57
2022-12-06T02:28:36.675Z,1013.55
2022-12-06T02:29:36.611Z,1013.55
2022-12-06T02:30:36.681Z,1013.51
2022-12-06T02:31:36.616Z,1013.52
2022-12-06T02:32:36.603Z,1013.50
2022-12-06T02:33:36.586Z,1013.47
2022-12-06T02:34:36.614Z,1013.49
2022-12-06T02:35:36.562Z,1013.47
2022-12-06T02:36:37.655Z,1013.42
2022-12-06T02:37:36.534Z,1013.51
2022-12-06T02:38:36.545Z,1013.49
2022-12-06T02:39:36.530Z,1013.46
2022-12-06T02:40:36.613Z,1013.45
2022-12-06T02:41:36.486Z,1013.45
2022-12-06T02:42:36.572Z,1013.46
2022-12-06T02:43:36.463Z,1013.47
2022-12-06T02:44:36.483Z,1013.43
2022-12-06T02:45:36.458Z,1013.47
2022-12-06T02:46:36.520Z,1013.45
2022-12-06T02:47:36.440Z,1013.45
2022-12-06T02:48:36.510Z,1013.47
2022-12-06T02:49:36.398Z,1013.48
2022-12-06T02:50:36.471Z,1013.50
2022-12-06T02:51:36.378Z,1013.44
2022-12-06T02:52:36.453Z,1013.53
2022-12-06T02:53:36.362Z,1013.50
2022-12-06T02:54:36.448Z,1013.50
2022-12-06T02:55:36.353Z,1013.46
2022-12-06T02:56:36.357Z,1013.41
2022-12-06T02:57:36.314Z,1013.37
2022-12-06T02:58:36.376Z,1013.40
2022-12-06T02:59:36.292Z,1013.35
2022-12-06T03:00:36.335Z,1013.34
2022-12-06T03:01:36.348Z,1013.44
2022-12-06T03:02:36.376Z,1013.35
2022-12-06T03:03:36.269Z,1013.39
2022-12-06T03:04:36.313Z,1013.35
2022-12-06T03:05:36.245Z,1013.38
2022-12-06T03:06:36.326Z,1013.33
2022-12-06T03:07:36.264Z,1013.35
2022-12-06T03:08:36.241Z,1013.31
2022-12-06T03:09:36.183Z,1013.29
2022-12-06T03:10:36.300Z,1013.31
2022-12-06T03:11:36.165Z,1013.34
2022-12-06T03:12:36.268Z,1013.34
2022-12-06T03:13:36.141Z,1013.36
2022-12-06T03:14:36.177Z,1013.34
2022-12-06T03:15:36.202Z,1013.33
2022-12-06T03:16:36.187Z,1013.35
2022-12-06T03:17:36.099Z,1013.31
2022-12-06T03:18:36.122Z,1013.35
2022-12-06T03:19:36.092Z,1013.35
2022-12-06T03:20:36.164Z,1013.32
2022-12-06T03:21:36.057Z,1013.29
2022-12-06T03:22:40.011Z,1013.32
2022-12-06T03:23:36.038Z,1013.30
2022-12-06T03:24:36.041Z,1013.27
2022-12-06T03:25:36.031Z,1013.34
2022-12-06T03:26:36.056Z,1013.25
2022-12-06T03:27:35.991Z,1013.24
2022-12-06T03:28:38.018Z,1013.28
2022-12-06T03:29:35.977Z,1013.27
2022-12-06T03:30:36.028Z,1013.30
2022-12-06T03:31:36.028Z,1013.27
2022-12-06T03:32:35.991Z,1013.29
2022-12-06T03:33:35.927Z,1013.27
2022-12-06T03:34:36.018Z,1013.29
2022-12-06T03:35:35.936Z,1013.29
2022-12-06T03:36:35.917Z,1013.26
2022-12-06T03:37:35.889Z,1013.25
2022-12-06T03:38:35.929Z,1013.24
2022-12-06T03:39:35.865Z,1013.22
2022-12-06T03:40:35.907Z,1013.23
2022-12-06T03:41:35.842Z,1013.28
2022-12-06T03:42:35.861Z,1013.28
2022-12-06T03:43:35.823Z,1013.27
2022-12-06T03:44:35.873Z,1013.22
2022-12-06T03:45:35.846Z,1013.22
2022-12-06T03:46:35.926Z,1013.24
2022-12-06T03:47:35.777Z,1013.23
2022-12-06T03:48:35.795Z,1013.23
2022-12-06T03:49:35.759Z,1013.21
2022-12-06T03:50:35.883Z,1013.23
2022-12-06T03:51:35.758Z,1013.24
2022-12-06T03:52:35.824Z,1013.19
2022-12-06T03:53:35.714Z,1013.22
2022-12-06T03:54:35.733Z,1013.26
2022-12-06T03:55:35.705Z,1013.17
2022-12-06T03:56:35.749Z,1013.21
2022-12-06T03:57:35.671Z,1013.25
2022-12-06T03:58:35.763Z,1013.23
2022-12-06T03:59:35.647Z,1013.21
2022-12-06T04:00:35.723Z,1013.21
2022-12-06T04:01:35.685Z,1013.21
2022-12-06T04:02:35.689Z,1013.25
2022-12-06T04:03:35.629Z,1013.22
2022-12-06T04:04:35.705Z,1013.23
2022-12-06T04:05:35.598Z,1013.25
2022-12-06T04:06:35.612Z,1013.23
2022-12-06T04:07:35.614Z,1013.26
2022-12-06T04:08:35.628Z,1013.29
2022-12-06T04:09:35.540Z,1013.32
2022-12-06T04:10:38.660Z,1013.30
2022-12-06T04:11:35.522Z,1013.24
2022-12-06T04:12:36.573Z,1013.30
2022-12-06T04:13:35.499Z,1013.25
2022-12-06T04:14:35.566Z,1013.27
2022-12-06T04:15:35.637Z,1013.23
2022-12-06T04:16:35.513Z,1013.29
2022-12-06T04:17:35.455Z,1013.24
2022-12-06T04:18:35.493Z,1013.27
2022-12-06T04:19:35.432Z,1013.24
2022-12-06T04:20:35.453Z,1013.21
2022-12-06T04:21:35.410Z,1013.23
2022-12-06T04:22:35.419Z,1013.18
2022-12-06T04:23:35.405Z,1013.21
2022-12-06T04:24:35.432Z,1013.17
2022-12-06T04:25:35.383Z,1013.22
2022-12-06T04:26:35.444Z,1013.22
2022-12-06T04:27:35.344Z,1013.21
2022-12-06T04:28:35.353Z,1013.25
2022-12-06T04:29:35.321Z,1013.20
2022-12-06T04:30:35.427Z,1013.24
2022-12-06T04:31:35.325Z,1013.20
2022-12-06T04:32:35.382Z,1013.25
2022-12-06T04:33:35.280Z,1013.25
2022-12-06T04:34:35.292Z,1013.28
2022-12-06T04:35:35.256Z,1013.26
2022-12-06T04:36:35.353Z,1013.25
2022-12-06T04:37:35.268Z,1013.20
2022-12-06T04:38:35.348Z,1013.21
2022-12-06T04:39:35.231Z,1013.18
2022-12-06T04:40:35.235Z,1013.25
2022-12-06T04:41:35.209Z,1013.18
2022-12-06T04:42:35.247Z,1013.21
2022-12-06T04:43:35.172Z,1013.16
2022-12-06T04:44:35.261Z,1013.13
2022-12-06T04:45:35.149Z,1013.15
2022-12-06T04:46:35.272Z,1013.13
2022-12-06T04:47:35.128Z,1013.16
2022-12-06T04:48:35.186Z,1013.12
2022-12-06T04:49:35.107Z,1013.16
2022-12-06T04:50:35.199Z,1013.13
2022-12-06T04:51:35.102Z,1013.09
2022-12-06T04:52:36.214Z,1013.01
2022-12-06T04:53:35.061Z,1013.03
2022-12-06T04:54:36.190Z,1013.01
2022-12-06T04:55:35.053Z,1013.02
2022-12-06T04:56:36.106Z,1012.99
2022-12-06T04:57:35.022Z,1012.99
2022-12-06T04:58:36.075Z,1012.96
2022-12-06T04:59:35.002Z,1013.03
2022-12-06T05:00:35.106Z,1012.96
2022-12-06T05:01:34.992Z,1013.00
2022-12-06T05:02:34.985Z,1013.01
2022-12-06T05:03:38.326Z,1013.01
2022-12-06T05:04:36.014Z,1013.02
2022-12-06T05:05:34.930Z,1013.03
2022-12-06T05:06:34.949Z,1013.02
2022-12-06T05:07:34.937Z,1013.02
2022-12-06T05:08:34.920Z,1012.97
2022-12-06T05:09:34.888Z,1013.02
2022-12-06T05:10:34.930Z,1013.00
2022-12-06T05:11:34.906Z,1012.96
2022-12-06T05:12:34.943Z,1012.96
2022-12-06T05:13:34.853Z,1012.97
2022-12-06T05:14:34.879Z,1012.94
2022-12-06T05:15:34.843Z,1012.91
2022-12-06T05:16:34.990Z,1012.93
2022-12-06T05:17:34.801Z,1012.91
2022-12-06T05:18:34.883Z,1012.91
2022-12-06T05:19:34.779Z,1012.93
2022-12-06T05:20:34.814Z,1012.92
2022-12-06T05:21:34.773Z,1012.87
2022-12-06T05:22:34.810Z,1012.88
2022-12-06T05:23:34.754Z,1012.87
2022-12-06T05:24:34.827Z,1012.82
2022-12-06T05:25:34.711Z,1012.87
2022-12-06T05:26:34.785Z,1012.88
2022-12-06T05:27:36.234Z,1012.88
2022-12-06T05:28:34.745Z,1012.90
2022-12-06T05:29:34.673Z,1012.88
2022-12-06T05:30:34.758Z,1012.85
2022-12-06T05:31:34.751Z,1012.88
2022-12-06T05:32:34.672Z,1012.86
2022-12-06T05:33:34.624Z,1012.86
2022-12-06T05:34:34.684Z,1012.86
2022-12-06T05:35:34.604Z,1012.90
2022-12-06T05:36:34.648Z,1012.88
2022-12-06T05:37:34.582Z,1012.85
2022-12-06T05:38:34.610Z,1012.81
2022-12-06T05:39:34.554Z,1012.84
2022-12-06T05:40:35.646Z,1012.84
2022-12-06T05:41:34.551Z,1012.85
2022-12-06T05:42:34.635Z,1012.86
2022-12-06T05:43:34.560Z,1012.85
2022-12-06T05:44:35.573Z,1012.81
2022-12-06T05:45:34.508Z,1012.81
2022-12-06T05:46:34.516Z,1012.80
2022-12-06T05:47:34.476Z,1012.84
2022-12-06T05:48:34.476Z,1012.83
2022-12-06T05:49:34.455Z,1012.87
2022-12-06T05:50:34.492Z,1012.81
2022-12-06T05:51:34.441Z,1012.85
2022-12-06T05:52:34.502Z,1012.83
2022-12-06T05:53:34.409Z,1012.80
2022-12-06T05:54:34.414Z,1012.80
2022-12-06T05:55:34.387Z,1012.85
2022-12-06T05:56:34.480Z,1012.88
2022-12-06T05:57:34.362Z,1012.85
2022-12-06T05:58:34.439Z,1012.86
2022-12-06T05:59:34.358Z,1012.87
2022-12-06T06:00:34.352Z,1012.84
2022-12-06T06:01:34.339Z,1012.87
2022-12-06T06:02:34.469Z,1012.86
2022-12-06T06:03:34.374Z,1012.92
2022-12-06T06:04:34.382Z,1012.91
2022-12-06T06:05:34.280Z,1012.94
2022-12-06T06:06:34.348Z,1012.93
2022-12-06T06:07:34.302Z,1012.87
2022-12-06T06:08:34.304Z,1012.85
2022-12-06T06:09:34.240Z,1012.84
2022-12-06T06:10:34.316Z,1012.81
2022-12-06T06:11:34.225Z,1012.84
2022-12-06T06:12:34.229Z,1012.87
2022-12-06T06:13:34.190Z,1012.83
2022-12-06T06:14:34.243Z,1012.87
2022-12-06T06:15:34.179Z,1012.84
2022-12-06T06:16:34.329Z,1012.84
2022-12-06T06:17:34.148Z,1012.86
2022-12-06T06:18:34.171Z,1012.86
2022-12-06T06:19:34.123Z,1012.86
2022-12-06T06:20:34.182Z,1012.92
2022-12-06T06:21:34.116Z,1012.92
2022-12-06T06:22:34.199Z,1012.85
2022-12-06T06:23:34.082Z,1012.85
2022-12-06T06:24:34.211Z,1012.87
2022-12-06T06:25:34.056Z,1012.87
2022-12-06T06:26:34.173Z,1012.92
2022-12-06T06:27:34.038Z,1012.96
2022-12-06T06:28:34.138Z,1012.98
2022-12-06T06:29:34.020Z,1012.92
2022-12-06T06:30:34.051Z,1012.94
2022-12-06T06:31:34.134Z,1012.95
2022-12-06T06:32:34.064Z,1012.95
2022-12-06T06:33:33.976Z,1012.95
2022-12-06T06:34:33.976Z,1012.93
2022-12-06T06:35:33.949Z,1012.92
2022-12-06T06:36:34.045Z,1012.93
2022-12-06T06:37:33.926Z,1012.94
2022-12-06T06:38:34.004Z,1012.93
2022-12-06T06:39:33.912Z,1012.97
2022-12-06T06:40:33.934Z,1012.95
2022-12-06T06:41:33.895Z,1012.93
2022-12-06T06:42:34.677Z,1012.98
2022-12-06T06:43:33.871Z,1012.90
2022-12-06T06:44:33.941Z,1012.94
2022-12-06T06:45:33.951Z,1012.97
2022-12-06T06:46:34.006Z,1013.03
2022-12-06T06:47:33.835Z,1012.99
2022-12-06T06:48:33.963Z,1013.03
2022-12-06T06:49:33.802Z,1013.05
2022-12-06T06:50:33.882Z,1013.08
2022-12-06T06:51:33.793Z,1013.13
2022-12-06T06:52:33.789Z,1013.19
2022-12-06T06:53:33.760Z,1013.13
2022-12-06T06:54:33.802Z,1013.12
2022-12-06T06:55:33.734Z,1013.12
2022-12-06T06:56:33.767Z,1013.10
2022-12-06T06:57:33.717Z,1013.13
2022-12-06T06:58:33.731Z,1013.02
2022-12-06T06:59:33.693Z,1013.05
2022-12-06T07:00:33.744Z,1013.12
2022-12-06T07:01:33.828Z,1013.14
2022-12-06T07:02:33.906Z,1013.13
2022-12-06T07:03:33.682Z,1013.13
2022-12-06T07:04:33.667Z,1013.20
2022-12-06T07:05:33.628Z,1013.18
2022-12-06T07:06:33.731Z,1013.21
2022-12-06T07:07:33.717Z,1013.12
2022-12-06T07:08:33.696Z,1013.13
2022-12-06T07:09:33.581Z,1013.13
2022-12-06T07:10:33.608Z,1013.13
2022-12-06T07:11:33.581Z,1013.14
2022-12-06T07:12:34.646Z,1013.12
2022-12-06T07:13:33.541Z,1013.16
2022-12-06T07:14:33.636Z,1013.17
2022-12-06T07:15:33.517Z,1013.20
2022-12-06T07:16:33.622Z,1013.26
2022-12-06T07:17:33.498Z,1013.25
2022-12-06T07:18:35.507Z,1013.27
2022-12-06T07:19:33.489Z,1013.21
2022-12-06T07:20:33.580Z,1013.27
2022-12-06T07:21:33.469Z,1013.26
2022-12-06T07:22:33.489Z,1013.25
2022-12-06T07:23:33.436Z,1013.25
2022-12-06T07:24:38.356Z,1013.25
2022-12-06T07:25:34.413Z,1013.27
2022-12-06T07:26:33.461Z,1013.26
2022-12-06T07:27:33.390Z,1013.25
2022-12-06T07:28:33.427Z,1013.25
2022-12-06T07:29:33.368Z,1013.28
2022-12-06T07:30:33.675Z,1013.26
2022-12-06T07:31:33.427Z,1013.28
2022-12-06T07:32:33.352Z,1013.22
2022-12-06T07:33:33.325Z,1013.23
2022-12-06T07:34:33.366Z,1013.21
2022-12-06T07:36:03.664Z,1013.22
2022-12-06T07:36:34.305Z,1013.25
2022-12-06T07:37:33.285Z,1013.20
2022-12-06T07:38:33.287Z,1013.27
2022-12-06T07:39:33.260Z,1013.33
2022-12-06T07:41:03.050Z,1013.35
2022-12-06T07:41:34.280Z,1013.37
2022-12-06T07:42:33.227Z,1013.41
2022-12-06T07:43:33.329Z,1013.35
2022-12-06T07:44:33.204Z,1013.37
2022-12-06T07:45:33.234Z,1013.37
2022-12-06T07:46:33.251Z,1013.41
2022-12-06T07:47:33.247Z,1013.38
2022-12-06T07:48:33.160Z,1013.42
2022-12-06T07:49:33.164Z,1013.41
2022-12-06T07:50:33.148Z,1013.39
2022-12-06T07:51:33.237Z,1013.40
2022-12-06T07:52:33.119Z,1013.43
2022-12-06T07:53:33.186Z,1013.38
2022-12-06T07:54:33.094Z,1013.39
2022-12-06T07:55:33.101Z,1013.43
2022-12-06T07:56:33.078Z,1013.40
2022-12-06T07:57:34.544Z,1013.41
2022-12-06T07:58:33.052Z,1013.37
2022-12-06T07:59:34.152Z,1013.37
2022-12-06T08:00:33.030Z,1013.42
2022-12-06T08:01:57.255Z,1013.41
2022-12-06T08:02:33.011Z,1013.42
2022-12-06T08:03:33.060Z,1013.38
2022-12-06T08:04:33.050Z,1013.44
2022-12-06T08:05:35.011Z,1013.45
2022-12-06T08:06:32.963Z,1013.41
2022-12-06T08:07:33.157Z,1013.48
2022-12-06T08:08:33.006Z,1013.42
2022-12-06T08:09:33.006Z,1013.46
2022-12-06T08:10:32.922Z,1013.42
2022-12-06T08:11:33.007Z,1013.45
2022-12-06T08:12:32.912Z,1013.45
2022-12-06T08:13:32.915Z,1013.49
2022-12-06T08:14:32.876Z,1013.45
2022-12-06T08:15:32.963Z,1013.52
2022-12-06T08:16:32.950Z,1013.48
2022-12-06T08:17:32.893Z,1013.58
2022-12-06T08:18:32.834Z,1013.55
2022-12-06T08:19:32.858Z,1013.55
2022-12-06T08:20:32.811Z,1013.57
2022-12-06T08:21:32.867Z,1013.58
2022-12-06T08:22:32.808Z,1013.57
2022-12-06T08:23:34.631Z,1013.56
2022-12-06T08:24:32.771Z,1013.55
2022-12-06T08:25:32.793Z,1013.61
2022-12-06T08:26:32.751Z,1013.60
2022-12-06T08:27:32.863Z,1013.62
2022-12-06T08:28:32.727Z,1013.65
2022-12-06T08:29:32.822Z,1013.61
2022-12-06T08:30:32.771Z,1013.64
2022-12-06T08:31:32.797Z,1013.64
2022-12-06T08:32:32.697Z,1013.66
2022-12-06T08:33:32.748Z,1013.61
2022-12-06T08:34:32.658Z,1013.66
2022-12-06T08:35:32.761Z,1013.60
2022-12-06T08:36:32.638Z,1013.61
2022-12-06T08:37:32.724Z,1013.61
2022-12-06T08:38:32.623Z,1013.64
2022-12-06T08:39:32.702Z,1013.61
2022-12-06T08:40:32.601Z,1013.64
2022-12-06T08:41:32.701Z,1013.62
2022-12-06T08:42:32.581Z,1013.62
2022-12-06T08:43:32.614Z,1013.65
2022-12-06T08:44:32.550Z,1013.60
2022-12-06T08:45:32.628Z,1013.57
2022-12-06T08:46:32.550Z,1013.60
2022-12-06T08:47:32.594Z,1013.57
2022-12-06T08:48:32.509Z,1013.54
2022-12-06T08:49:32.548Z,1013.53
2022-12-06T08:50:32.486Z,1013.56
2022-12-06T08:51:32.564Z,1013.52
2022-12-06T08:52:32.482Z,1013.55
2022-12-06T08:53:32.474Z,1013.55
2022-12-06T08:54:32.445Z,1013.51
2022-12-06T08:55:32.507Z,1013.53
2022-12-06T08:56:32.420Z,1013.54
2022-12-06T08:57:32.454Z,1013.54
2022-12-06T08:58:32.400Z,1013.56
2022-12-06T08:59:32.414Z,1013.56
2022-12-06T09:00:32.380Z,1013.57
2022-12-06T09:01:37.485Z,1013.57
2022-12-06T09:02:33.374Z,1013.55
2022-12-06T09:03:32.443Z,1013.59
2022-12-06T09:04:32.382Z,1013.52
2022-12-06T09:05:32.356Z,1013.57
2022-12-06T09:06:32.315Z,1013.57
2022-12-06T09:07:32.535Z,1013.61
2022-12-06T09:08:32.289Z,1013.60
2022-12-06T09:09:32.386Z,1013.60
2022-12-06T09:10:32.279Z,1013.62
2022-12-06T09:11:32.309Z,1013.57
2022-12-06T09:12:32.263Z,1013.62
2022-12-06T09:13:32.313Z,1013.66
2022-12-06T09:14:32.220Z,1013.60
2022-12-06T09:15:32.374Z,1013.60
2022-12-06T09:16:32.247Z,1013.60
2022-12-06T09:17:32.286Z,1013.60
2022-12-06T09:18:32.182Z,1013.62
2022-12-06T09:19:32.247Z,1013.60
2022-12-06T09:20:32.163Z,1013.63
2022-12-06T09:21:32.267Z,1013.61
2022-12-06T09:22:32.152Z,1013.62
2022-12-06T09:23:32.173Z,1013.63
2022-12-06T09:24:32.144Z,1013.62
2022-12-06T09:25:32.193Z,1013.61
2022-12-06T09:26:32.098Z,1013.65
2022-12-06T09:27:32.161Z,1013.63
2022-12-06T09:28:32.075Z,1013.63
2022-12-06T09:29:38.842Z,1013.63
2022-12-06T09:30:33.050Z,1013.63
2022-12-06T09:31:33.175Z,1013.60
2022-12-06T09:32:32.045Z,1013.60
2022-12-06T09:33:33.064Z,1013.62
2022-12-06T09:34:32.009Z,1013.56
2022-12-06T09:35:33.075Z,1013.55
2022-12-06T09:36:31.986Z,1013.57
2022-12-06T09:37:32.019Z,1013.54
2022-12-06T09:38:31.969Z,1013.49
2022-12-06T09:39:31.972Z,1013.54
2022-12-06T09:40:31.944Z,1013.55
2022-12-06T09:41:31.989Z,1013.49
2022-12-06T09:42:31.934Z,1013.58
2022-12-06T09:43:32.016Z,1013.55
2022-12-06T09:44:31.898Z,1013.52
2022-12-06T09:45:31.916Z,1013.56
2022-12-06T09:46:31.970Z,1013.58
2022-12-06T09:47:31.981Z,1013.55
2022-12-06T09:48:31.856Z,1013.58
2022-12-06T09:49:31.943Z,1013.55
2022-12-06T09:50:31.833Z,1013.55
2022-12-06T09:51:31.856Z,1013.52
2022-12-06T09:52:31.826Z,1013.46
2022-12-06T09:53:31.867Z,1013.48
2022-12-06T09:54:31.788Z,1013.48
2022-12-06T09:55:31.879Z,1013.51
2022-12-06T09:56:31.760Z,1013.47
2022-12-06T09:57:31.833Z,1013.52
2022-12-06T09:58:31.743Z,1013.44
2022-12-06T09:59:31.822Z,1013.50
2022-12-06T10:00:31.726Z,1013.44
2022-12-06T10:01:31.887Z,1013.45
2022-12-06T10:02:31.772Z,1013.47
2022-12-06T10:03:31.737Z,1013.46
2022-12-06T10:04:31.672Z,1013.44
2022-12-06T10:05:31.750Z,1013.45
2022-12-06T10:06:31.653Z,1013.44
2022-12-06T10:07:31.901Z,1013.38
2022-12-06T10:08:31.876Z,1013.42
2022-12-06T10:09:31.676Z,1013.45
2022-12-06T10:10:31.610Z,1013.41
2022-12-06T10:11:31.684Z,1013.42
2022-12-06T10:12:31.616Z,1013.39
2022-12-06T10:13:31.595Z,1013.39
2022-12-06T10:14:31.573Z,1013.34
2022-12-06T10:15:31.629Z,1013.36
2022-12-06T10:16:31.685Z,1013.36
2022-12-06T10:17:31.687Z,1013.35
2022-12-06T10:18:31.532Z,1013.25
2022-12-06T10:19:31.535Z,1013.21
2022-12-06T10:20:31.506Z,1013.30
2022-12-06T10:21:32.571Z,1013.26
2022-12-06T10:22:31.574Z,1013.28
2022-12-06T10:23:32.482Z,1013.25
2022-12-06T10:24:31.465Z,1013.31
2022-12-06T10:25:31.458Z,1013.29
2022-12-06T10:26:32.608Z,1013.33
2022-12-06T10:27:31.445Z,1013.25
2022-12-06T10:28:31.502Z,1013.23
2022-12-06T10:29:31.408Z,1013.23
2022-12-06T10:30:31.507Z,1013.16
2022-12-06T10:31:31.465Z,1013.19
2022-12-06T10:32:31.469Z,1013.18
2022-12-06T10:33:31.365Z,1013.19
2022-12-06T10:34:31.434Z,1013.14
2022-12-06T10:35:31.338Z,1013.16
2022-12-06T10:36:31.342Z,1013.18
2022-12-06T10:37:31.316Z,1013.13
2022-12-06T10:38:31.415Z,1013.14
2022-12-06T10:39:31.292Z,1013.12
2022-12-06T10:40:31.376Z,1013.16
2022-12-06T10:41:31.277Z,1013.19
2022-12-06T10:42:31.281Z,1013.17
2022-12-06T10:43:31.267Z,1013.13
2022-12-06T10:44:31.300Z,1013.15
2022-12-06T10:45:31.231Z,1013.20
2022-12-06T10:46:31.350Z,1013.15
2022-12-06T10:47:31.230Z,1013.17
2022-12-06T10:48:31.273Z,1013.13
2022-12-06T10:49:31.189Z,1013.11
2022-12-06T10:50:31.239Z,1013.14
2022-12-06T10:51:31.174Z,1013.11
2022-12-06T10:52:31.253Z,1013.13
2022-12-06T10:53:31.161Z,1013.07
2022-12-06T10:54:31.165Z,1013.02
2022-12-06T10:55:31.124Z,1013.07
2022-12-06T10:56:31.172Z,1013.04
2022-12-06T10:57:31.100Z,1013.05
2022-12-06T10:58:31.137Z,1013.07
2022-12-06T10:59:31.080Z,1013.02
2022-12-06T11:00:31.117Z,1013.01
2022-12-06T11:01:31.141Z,1012.99
2022-12-06T11:02:31.092Z,1013.03
2022-12-06T11:03:31.188Z,1013.00
2022-12-06T11:04:31.024Z,1013.02
2022-12-06T11:05:31.036Z,1013.04
2022-12-06T11:06:31.007Z,1012.98
2022-12-06T11:07:32.136Z,1012.98
2022-12-06T11:08:30.997Z,1013.00
2022-12-06T11:09:31.079Z,1012.99
2022-12-06T11:10:30.959Z,1013.01
2022-12-06T11:11:30.971Z,1013.06
2022-12-06T11:12:31.818Z,1013.03
2022-12-06T11:13:31.036Z,1012.95
2022-12-06T11:14:30.912Z,1012.95
2022-12-06T11:15:31.001Z,1012.98
2022-12-06T11:16:30.944Z,1012.97
2022-12-06T11:17:30.910Z,1012.97
2022-12-06T11:18:30.886Z,1012.96
2022-12-06T11:19:30.952Z,1012.91
2022-12-06T11:20:30.848Z,1012.94
2022-12-06T11:21:30.938Z,1012.91
2022-12-06T11:22:30.824Z,1012.92
2022-12-06T11:23:30.897Z,1012.92
2022-12-06T11:24:30.807Z,1012.95
2022-12-06T11:25:30.862Z,1012.92
2022-12-06T11:26:30.795Z,1012.96
2022-12-06T11:27:30.931Z,1012.97
2022-12-06T11:28:30.785Z,1012.92
2022-12-06T11:29:30.794Z,1012.94
2022-12-06T11:30:30.741Z,1012.97
2022-12-06T11:31:30.856Z,1012.99
2022-12-06T11:32:30.725Z,1012.99
2022-12-06T11:33:30.760Z,1013.01
2022-12-06T11:34:30.698Z,1013.00
2022-12-06T11:35:30.767Z,1012.99
2022-12-06T11:36:30.671Z,1012.93
2022-12-06T11:37:30.742Z,1012.93
2022-12-06T11:38:30.663Z,1012.98
2022-12-06T11:39:30.653Z,1012.95
2022-12-06T11:40:30.635Z,1012.98
2022-12-06T11:41:30.666Z,1012.94
2022-12-06T11:42:30.605Z,1012.94
2022-12-06T11:43:30.630Z,1012.91
2022-12-06T11:44:30.582Z,1012.89
2022-12-06T11:45:30.649Z,1012.91
2022-12-06T11:46:30.721Z,1012.93
2022-12-06T11:47:32.656Z,1012.92
2022-12-06T11:48:31.081Z,1012.89
2022-12-06T11:49:32.567Z,1012.89
2022-12-06T11:50:30.521Z,1012.89
2022-12-06T11:51:30.544Z,1012.88
2022-12-06T11:52:30.494Z,1012.87
2022-12-06T11:53:31.572Z,1012.88
2022-12-06T11:54:30.476Z,1012.88
2022-12-06T11:55:31.480Z,1012.91
2022-12-06T11:56:30.464Z,1012.90
2022-12-06T11:57:30.471Z,1012.91
2022-12-06T11:58:30.446Z,1012.91
2022-12-06T11:59:30.487Z,1012.99
2022-12-06T12:00:31.360Z,1012.98
2022-12-06T12:01:30.498Z,1012.97
2022-12-06T12:02:30.436Z,1012.92
2022-12-06T12:03:30.538Z,1012.84
2022-12-06T12:04:30.364Z,1012.72
2022-12-06T12:05:30.421Z,1012.72